Last 30 days

Temperature [°C]

Date Min. Avg. Max.
2017-06-23 16,70 18,04 20,10
2017-06-24 13,80 17,69 21,30
2017-06-25 14,30 18,75 27,20
2017-06-26 11,00 17,14 24,40
2017-06-27 7,10 14,57 27,80
2017-06-29 16,90 21,35 28,80
2017-06-30 14,00 16,00 18,60
2017-07-01 13,00 15,59 19,10
2017-07-02 12,40 16,24 24,10
2017-07-03 10,90 18,55 24,80
2017-07-04 12,70 17,46 22,90
2017-07-05 10,00 16,35 24,60
2017-07-06 5,30 20,39 32,30
2017-07-07 11,80 18,44 27,00
2017-07-08 14,20 20,53 28,00
2017-07-09 12,10 20,27 27,70
2017-07-10 9,40 19,10 30,50
2017-07-11 14,70 21,13 29,50
2017-07-12 12,00 18,45 32,30
2017-07-13 10,80 16,79 23,20
2017-07-14 7,40 18,31 29,80
2017-07-15 7,50 19,98 31,30
2017-07-16 7,50 18,42 29,20
2017-07-17 10,80 19,38 27,10
2017-07-18 7,70 18,62 30,40
2017-07-19 7,70 18,82 31,90
2017-07-20 16,00 22,02 33,30
2017-07-21 14,20 20,86 28,40
2017-07-22 13,20 21,33 33,50
2017-07-23 16,50 21,48 31,60

Humidity [%]

Date Min. Avg. Max.
2017-06-23 100 100 100
2017-06-24 100 100 100
2017-06-25 65 95 100
2017-06-26 35 75 100
2017-06-27 32 83 100
2017-06-29 76 95 100
2017-06-30 100 100 100
2017-07-01 100 100 100
2017-07-02 55 95 100
2017-07-03 44 75 100
2017-07-04 41 76 100
2017-07-05 38 83 100
2017-07-06 21 60 100
2017-07-07 67 95 100
2017-07-08 55 89 100
2017-07-09 35 71 100
2017-07-10 41 88 100
2017-07-11 47 82 100
2017-07-12 39 94 100
2017-07-13 45 80 100
2017-07-14 29 67 100
2017-07-15 25 63 100
2017-07-16 38 82 100
2017-07-17 34 74 100
2017-07-18 34 75 100
2017-07-19 37 79 100
2017-07-20 48 88 100
2017-07-21 68 95 100
2017-07-22 42 85 100
2017-07-23 62 96 100

Pressure [hPa]

Date Min. Avg. Max.
2017-06-23 1 013 1 013 1 014
2017-06-24 1 011 1 012 1 014
2017-06-25 1 008 1 009 1 012
2017-06-26 1 009 1 011 1 014
2017-06-27 1 014 1 015 1 015
2017-06-29 991 993 998
2017-06-30 992 998 1 004
2017-07-01 1 003 1 005 1 008
2017-07-02 1 008 1 013 1 017
2017-07-03 1 016 1 018 1 020
2017-07-04 1 016 1 018 1 021
2017-07-05 1 019 1 020 1 021
2017-07-06 1 019 1 021 1 022
2017-07-07 1 014 1 016 1 020
2017-07-08 1 014 1 014 1 015
2017-07-09 1 015 1 016 1 018
2017-07-10 1 007 1 010 1 015
2017-07-11 1 007 1 010 1 012
2017-07-12 1 006 1 009 1 012
2017-07-13 1 010 1 017 1 020
2017-07-14 1 016 1 017 1 020
2017-07-15 1 017 1 020 1 023
2017-07-16 1 019 1 022 1 024
2017-07-17 1 019 1 021 1 023
2017-07-18 1 022 1 023 1 024
2017-07-19 1 014 1 018 1 022
2017-07-20 1 009 1 012 1 014
2017-07-21 1 011 1 015 1 017
2017-07-22 1 015 1 017 1 018
2017-07-23 1 013 1 014 1 016

Wind speed [m/s]

Date Min. Avg. Max.
2017-06-23 2,6 3,8 5,1
2017-06-24 2,1 4,3 8,2
2017-06-25 1,5 3,7 7,7
2017-06-26 0,5 4,4 7,7
2017-06-27 1,0 1,9 3,6
2017-06-29 1,5 3,2 6,2
2017-06-30 3,1 5,1 7,7
2017-07-01 2,1 4,2 5,7
2017-07-02 3,1 5,0 7,7
2017-07-03 2,1 4,8 7,2
2017-07-04 1,5 5,5 9,8
2017-07-05 0,5 3,0 5,7
2017-07-06 1,0 1,8 3,1
2017-07-07 1,0 3,5 5,7
2017-07-08 1,0 3,5 7,2
2017-07-09 1,5 3,0 4,6
2017-07-10 1,0 2,5 4,6
2017-07-11 1,5 3,2 8,2
2017-07-12 1,0 2,6 6,2
2017-07-13 1,5 6,1 8,7
2017-07-14 0,5 2,1 3,6
2017-07-15 1,0 2,8 5,7
2017-07-16 0,5 2,8 6,7
2017-07-17 1,0 3,8 6,7
2017-07-18 1,0 2,8 4,6
2017-07-19 1,0 2,7 6,2
2017-07-20 1,5 3,3 5,7
2017-07-21 1,5 3,4 5,7
2017-07-22 1,5 2,8 5,1
2017-07-23 1,5 3,5 6,2

Temperature Internal [°C]

Date Min. Avg. Max.
2017-06-23 24,9 25,1 25,2
2017-06-24 24,3 24,6 24,8
2017-06-25 24,1 24,7 25,2
2017-06-26 23,7 24,3 24,9
2017-06-27 23,6 23,9 24,3
2017-06-29 24,9 25,7 26,5
2017-06-30 23,8 24,8 25,6
2017-07-01 23,7 24,1 24,5
2017-07-02 23,8 24,1 24,6
2017-07-03 23,3 24,0 24,7
2017-07-04 23,2 23,9 24,5
2017-07-05 22,8 23,8 24,7
2017-07-06 22,5 24,2 25,6
2017-07-07 24,5 25,0 25,5
2017-07-08 24,4 25,2 26,0
2017-07-09 23,5 24,3 25,8
2017-07-10 22,7 24,4 25,5
2017-07-11 23,2 24,9 26,3
2017-07-12 24,2 25,2 25,9
2017-07-13 23,5 24,3 24,8
2017-07-14 23,4 24,8 25,4
2017-07-15 24,2 24,9 25,4
2017-07-16 24,2 25,0 25,5
2017-07-17 24,4 24,8 25,2
2017-07-18 23,0 24,7 25,4
2017-07-19 23,2 24,9 26,5
2017-07-20 25,0 26,0 27,2
2017-07-21 25,3 26,1 26,9
2017-07-22 25,3 26,3 27,3
2017-07-23 25,1 25,9 26,6

Light level []

Date Min. Avg. Max.
2017-06-23 0 280 856
2017-06-24 0 581 956
2017-06-25 0 605 971
2017-06-26 0 602 982
2017-06-27 0 484 924
2017-06-29 0 573 977
2017-06-30 0 504 951
2017-07-01 0 553 972
2017-07-02 0 578 964
2017-07-03 0 578 984
2017-07-04 0 612 972
2017-07-05 0 667 977
2017-07-06 0 490 940
2017-07-07 0 583 981
2017-07-08 0 645 979
2017-07-09 0 614 983
2017-07-10 0 655 979
2017-07-11 0 614 992
2017-07-12 0 554 978
2017-07-13 0 644 990
2017-07-14 0 752 990
2017-07-15 0 673 982
2017-07-16 0 638 989
2017-07-17 0 637 989
2017-07-18 0 639 992
2017-07-19 0 594 992
2017-07-20 0 584 991
2017-07-21 0 640 992
2017-07-22 0 556 986
2017-07-23 0 660 992